Time;durP1;ratioP1;P1;durP2;ratioP2;P2;SDS_P1;SDS_P2;PMS_P1;PMS_P2;Temp;Humidity;BMP_temperature;BMP_pressure;BME280_temperature;BME280_humidity;BME280_pressure;Samples;Min_cycle;Max_cycle;Signal;HPM_P1;HPM_P2
2023/09/28 00:01:31;;;;;;;0.00;0.00;;;;;;;15.35;83.19;99899.72;4886885;29;20352;-74
2023/09/28 00:03:57;;;;;;;0.00;0.00;;;;;;;15.32;82.67;99894.84;4882122;29;20036;-75
2023/09/28 00:06:22;;;;;;;0.00;0.00;;;;;;;15.32;82.36;99907.81;4872012;29;20020;-74
2023/09/28 00:08:47;;;;;;;0.00;0.00;;;;;;;15.25;82.15;99897.22;4869887;29;20033;-74
2023/09/28 00:11:13;;;;;;;0.00;0.00;;;;;;;15.22;83.22;99930.09;4885564;29;20069;-74
2023/09/28 00:13:38;;;;;;;0.00;0.00;;;;;;;15.14;82.80;99901.31;4885916;29;20029;-74
2023/09/28 00:16:04;;;;;;;0.00;0.00;;;;;;;15.19;82.94;99921.28;4868333;29;21565;-75
2023/09/28 00:18:29;;;;;;;0.00;0.00;;;;;;;15.21;83.04;99911.91;4885355;29;20176;-73
2023/09/28 00:20:55;;;;;;;0.00;0.00;;;;;;;15.27;82.86;99916.19;4867415;29;20547;-73
2023/09/28 00:23:20;;;;;;;0.00;0.00;;;;;;;15.24;82.87;99922.31;4885427;29;20048;-74
2023/09/28 00:25:46;;;;;;;0.00;0.00;;;;;;;15.24;82.99;99922.31;4881613;29;20043;-74
2023/09/28 00:28:12;;;;;;;0.00;0.00;;;;;;;15.22;83.35;99919.06;4881667;29;20115;-74
2023/09/28 00:30:38;;;;;;;0.00;0.00;;;;;;;15.07;83.51;99907.25;4858318;29;20566;-73
2023/09/28 00:33:04;;;;;;;0.00;0.00;;;;;;;14.93;84.44;99928.47;4886613;29;20040;-74
2023/09/28 00:35:30;;;;;;;0.00;0.00;;;;;;;14.77;85.04;99925.22;4880707;29;20044;-74
2023/09/28 00:37:56;;;;;;;0.00;0.00;;;;;;;14.66;86.01;99930.13;4883416;29;20039;-74
2023/09/28 00:40:28;;;;;;;0.00;0.00;;;;;;;14.66;86.45;99930.13;4880517;29;21913;-75
2023/09/28 00:42:55;;;;;;;0.00;0.00;;;;;;;14.77;86.61;99942.53;4888055;29;20044;-75
2023/09/28 00:45:22;;;;;;;0.00;0.00;;;;;;;14.88;85.39;99936.84;4880365;29;20700;-74
2023/09/28 00:47:51;;;;;;;0.00;0.00;;;;;;;14.95;85.08;99949.09;4856820;29;20120;-74
2023/09/28 00:50:17;;;;;;;0.00;0.00;;;;;;;15.02;83.12;99943.16;4883697;29;20032;-75
2023/09/28 00:52:49;;;;;;;0.00;0.00;;;;;;;15.04;82.54;99935.41;4872864;29;20068;-74
2023/09/28 00:55:17;;;;;;;0.00;0.00;;;;;;;14.91;83.29;99953.56;4890168;29;20120;-75
2023/09/28 00:57:43;;;;;;;0.00;0.00;;;;;;;14.79;83.96;99967.00;4887013;29;20829;-75
2023/09/28 01:00:18;;;;;;;0.00;0.00;;;;;;;14.80;84.53;99974.97;4885893;29;20028;-75
2023/09/28 01:02:52;;;;;;;0.00;0.00;;;;;;;14.90;83.71;100000.66;4880850;29;20120;-74
2023/09/28 01:05:19;;;;;;;0.00;0.00;;;;;;;14.96;82.78;99996.69;4892609;29;20028;-74
2023/09/28 01:07:44;;;;;;;0.00;0.00;;;;;;;14.99;82.76;99996.88;4888147;29;20033;-74
2023/09/28 01:10:12;;;;;;;0.00;0.00;;;;;;;15.03;82.57;99993.53;4873105;29;20044;-75
2023/09/28 01:12:39;;;;;;;0.00;0.00;;;;;;;15.06;81.52;99993.72;4882503;29;20115;-72
2023/09/28 01:15:09;;;;;;;0.00;0.00;;;;;;;15.07;81.80;99978.84;4886421;29;20044;-75
2023/09/28 01:17:36;;;;;;;0.00;0.00;;;;;;;15.11;81.59;99990.88;4883012;29;20029;-75
2023/09/28 01:20:34;;;;;;;0.00;0.00;;;;;;;15.14;81.22;99982.00;4889430;29;20135;-74
2023/09/28 01:22:50;;;;;;;0.00;0.00;;;;;;;15.13;81.24;99976.81;4883570;29;20131;-74
2023/09/28 01:25:19;;;;;;;0.00;0.00;;;;;;;15.14;81.30;99994.94;4886645;29;20025;-74
2023/09/28 01:27:47;;;;;;;0.00;0.00;;;;;;;15.15;81.07;99993.81;4870177;29;20119;-74
2023/09/28 01:30:14;;;;;;;0.00;0.00;;;;;;;15.16;80.47;99982.50;4887027;29;20115;-76
2023/09/28 01:32:40;;;;;;;0.00;0.00;;;;;;;15.18;80.76;99980.25;4892551;29;20097;-75
2023/09/28 01:35:06;;;;;;;0.00;0.00;;;;;;;15.18;81.02;99977.50;4884083;29;20025;-76
2023/09/28 01:37:50;;;;;;;0.00;0.00;;;;;;;15.19;80.74;99981.06;4892902;29;20534;-76
2023/09/28 01:40:16;;;;;;;0.00;0.00;;;;;;;15.17;80.61;99977.81;4884769;29;20060;-74
2023/09/28 01:42:42;;;;;;;0.00;0.00;;;;;;;15.15;80.76;99963.53;4866909;29;20036;-76
2023/09/28 01:45:08;;;;;;;0.00;0.00;;;;;;;15.16;80.27;99974.25;4893221;29;20155;-77
2023/09/28 01:47:34;;;;;;;0.00;0.00;;;;;;;15.19;80.05;99981.88;4868898;29;20067;-75
2023/09/28 01:50:00;;;;;;;0.00;0.00;;;;;;;15.23;79.27;99986.78;4865156;29;20060;-74
2023/09/28 01:52:26;;;;;;;0.00;0.00;;;;;;;15.22;79.54;99994.22;4861609;29;20028;-74
2023/09/28 01:54:51;;;;;;;0.00;0.00;;;;;;;15.18;79.32;99985.75;4871476;29;20037;-75
2023/09/28 01:57:17;;;;;;;0.00;0.00;;;;;;;15.15;78.78;99989.13;4859444;29;20032;-76
2023/09/28 01:59:43;;;;;;;0.00;0.00;;;;;;;15.12;78.64;99975.97;4852652;29;20480;-75
2023/09/28 02:02:08;;;;;;;0.00;0.00;;;;;;;15.09;78.59;99976.59;4868713;29;20052;-74
2023/09/28 02:04:37;;;;;;;0.00;0.00;;;;;;;14.95;78.06;99971.09;4852110;29;20515;-73
2023/09/28 02:07:02;;;;;;;0.00;0.00;;;;;;;14.97;77.83;99979.88;4864324;29;20029;-74
2023/09/28 02:09:29;;;;;;;0.00;0.00;;;;;;;14.93;78.21;99989.03;4870788;29;20502;-75
2023/09/28 02:11:54;;;;;;;0.00;0.00;;;;;;;14.94;77.94;99990.69;4865066;29;20036;-74
2023/09/28 02:14:20;;;;;;;0.00;0.00;;;;;;;14.92;77.98;99987.41;4857179;29;20036;-73
2023/09/28 02:16:45;;;;;;;0.00;0.00;;;;;;;14.95;77.53;100000.56;4854707;29;20467;-75
2023/09/28 02:19:11;;;;;;;0.00;0.00;;;;;;;14.97;77.23;100003.84;4855028;29;20036;-76
2023/09/28 02:21:36;;;;;;;0.00;0.00;;;;;;;14.89;77.14;100007.28;4877080;29;20484;-75
2023/09/28 02:24:02;;;;;;;0.00;0.00;;;;;;;14.89;77.82;100004.53;4839712;29;20103;-76
2023/09/28 02:26:27;;;;;;;0.00;0.00;;;;;;;14.86;78.14;100005.16;4856435;29;20036;-75
2023/09/28 02:28:53;;;;;;;0.00;0.00;;;;;;;14.89;78.04;100021.06;4858394;29;20579;-74
2023/09/28 02:31:18;;;;;;;0.00;0.00;;;;;;;14.88;78.65;100011.16;4884079;29;20120;-75
2023/09/28 02:33:43;;;;;;;0.00;0.00;;;;;;;14.90;78.50;100012.50;4854969;29;20146;-75
2023/09/28 02:36:09;;;;;;;0.00;0.00;;;;;;;14.84;78.33;100003.50;4868330;29;20028;-75
2023/09/28 02:38:34;;;;;;;0.00;0.00;;;;;;;14.83;78.75;100007.41;4851745;29;20047;-75
2023/09/28 02:41:00;;;;;;;0.00;0.00;;;;;;;14.86;78.83;99999.66;4875752;29;20049;-75
2023/09/28 02:43:25;;;;;;;0.00;0.00;;;;;;;14.88;79.17;100008.41;4851831;29;20144;-74
2023/09/28 02:45:50;;;;;;;0.00;0.00;;;;;;;14.89;79.22;100005.34;4889210;29;20032;-75
2023/09/28 02:48:16;;;;;;;0.00;0.00;;;;;;;14.91;79.04;100007.78;4873188;29;20164;-75
2023/09/28 02:50:42;;;;;;;0.00;0.00;;;;;;;14.94;79.07;100019.03;4857906;29;20483;-75
2023/09/28 02:53:09;;;;;;;0.00;0.00;;;;;;;14.93;78.79;100017.38;4854502;29;20035;-74
2023/09/28 02:55:35;;;;;;;0.00;0.00;;;;;;;14.95;78.44;100017.91;4871829;29;20637;-73
2023/09/28 02:58:01;;;;;;;0.00;0.00;;;;;;;14.99;78.39;100021.66;4885943;29;20112;-74
2023/09/28 03:00:32;;;;;;;0.00;0.00;;;;;;;14.98;78.55;100021.97;4887261;29;20044;-74
2023/09/28 03:03:00;;;;;;;0.00;0.00;;;;;;;14.96;78.46;100014.00;4857627;29;20077;-75
2023/09/28 03:05:28;;;;;;;0.00;0.00;;;;;;;14.99;78.79;100026.38;4850547;29;20032;-75
2023/09/28 03:07:53;;;;;;;0.00;0.00;;;;;;;14.96;78.63;100041.53;4893971;29;20028;-75
2023/09/28 03:10:19;;;;;;;0.00;0.00;;;;;;;14.95;78.29;100037.19;4837086;29;20494;-76
2023/09/28 03:12:46;;;;;;;0.00;0.00;;;;;;;14.91;78.84;100036.16;4870589;29;20028;-75
2023/09/28 03:15:13;;;;;;;0.00;0.00;;;;;;;14.87;78.93;100034.31;4887272;29;20029;-75
2023/09/28 03:17:40;;;;;;;0.00;0.00;;;;;;;14.83;79.07;100054.19;4870040;29;20081;-75
2023/09/28 03:20:13;;;;;;;0.00;0.00;;;;;;;14.81;79.38;100059.19;4873297;29;20064;-75
2023/09/28 03:22:39;;;;;;;0.00;0.00;;;;;;;14.72;79.36;100055.50;4865941;29;20044;-75
2023/09/28 03:25:10;;;;;;;0.00;0.00;;;;;;;14.67;80.16;100052.81;4859395;29;20108;-76
2023/09/28 03:27:36;;;;;;;0.00;0.00;;;;;;;14.65;80.18;100066.09;4866386;29;20269;-76
2023/09/28 03:30:05;;;;;;;0.00;0.00;;;;;;;14.66;80.25;100051.22;4888732;29;20548;-76
2023/09/28 03:32:31;;;;;;;0.00;0.00;;;;;;;14.63;80.68;100051.78;4850685;29;20045;-75
2023/09/28 03:34:56;;;;;;;0.00;0.00;;;;;;;14.60;80.40;100052.38;4886743;29;20357;-76
2023/09/28 03:37:22;;;;;;;0.00;0.00;;;;;;;14.56;80.67;100057.66;4872728;29;20021;-75
2023/09/28 03:39:49;;;;;;;0.00;0.00;;;;;;;14.57;81.31;100052.97;4848341;29;20040;-75
2023/09/28 03:42:14;;;;;;;0.00;0.00;;;;;;;14.52;81.27;100050.31;4890018;29;20040;-75
2023/09/28 03:44:39;;;;;;;0.00;0.00;;;;;;;14.53;81.56;100065.69;4852853;29;20044;-75
2023/09/28 03:47:05;;;;;;;0.00;0.00;;;;;;;14.51;81.74;100056.94;4864840;29;20055;-75
2023/09/28 03:49:30;;;;;;;0.00;0.00;;;;;;;14.49;82.22;100069.06;4841879;29;20024;-74
2023/09/28 03:51:56;;;;;;;0.00;0.00;;;;;;;14.49;82.53;100079.25;4854989;29;20029;-74
2023/09/28 03:54:24;;;;;;;0.00;0.00;;;;;;;14.49;82.79;100091.06;4867066;29;20036;-75
2023/09/28 03:56:49;;;;;;;0.00;0.00;;;;;;;14.46;82.35;100102.66;4871651;29;20651;-75
2023/09/28 03:59:15;;;;;;;0.00;0.00;;;;;;;14.47;82.98;100104.31;4882583;29;20083;-76
2023/09/28 04:01:44;;;;;;;0.00;0.00;;;;;;;14.49;82.55;100106.75;4847545;29;20032;-75
2023/09/28 04:04:10;;;;;;;0.00;0.00;;;;;;;14.49;82.47;100101.25;4855560;29;20029;-75
2023/09/28 04:06:35;;;;;;;0.00;0.00;;;;;;;14.49;82.50;100102.06;4871095;29;20041;-75
2023/09/28 04:09:03;;;;;;;0.00;0.00;;;;;;;14.49;82.49;100113.06;4873090;29;20395;-76
2023/09/28 04:11:28;;;;;;;0.00;0.00;;;;;;;14.48;82.41;100105.13;4851060;29;20025;-75
2023/09/28 04:13:54;;;;;;;0.00;0.00;;;;;;;14.44;82.37;100115.09;4884749;29;20027;-74
2023/09/28 04:16:19;;;;;;;0.00;0.00;;;;;;;14.43;82.63;100103.28;4874026;29;20464;-76
2023/09/28 04:18:45;;;;;;;0.00;0.00;;;;;;;14.37;82.38;100093.47;4850831;29;20028;-75
2023/09/28 04:21:10;;;;;;;0.00;0.00;;;;;;;14.30;82.36;100095.78;4872511;29;20039;-74
2023/09/28 04:23:35;;;;;;;0.00;0.00;;;;;;;14.22;82.71;100102.78;4841877;29;20180;-75
2023/09/28 04:26:01;;;;;;;0.00;0.00;;;;;;;14.15;82.76;100124.34;4866094;29;20041;-74
2023/09/28 04:28:26;;;;;;;0.00;0.00;;;;;;;14.06;83.17;100121.44;4858449;29;20040;-74
2023/09/28 04:30:52;;;;;;;0.00;0.00;;;;;;;13.91;83.35;100114.19;4849498;29;20497;-74
2023/09/28 04:33:20;;;;;;;0.00;0.00;;;;;;;13.76;83.72;100109.75;4857510;29;20543;-75
2023/09/28 04:35:46;;;;;;;0.00;0.00;;;;;;;13.67;84.26;100103.28;4851215;29;20065;-75
2023/09/28 04:38:12;;;;;;;0.00;0.00;;;;;;;13.55;84.27;100094.63;4855165;29;20060;-75
2023/09/28 04:40:37;;;;;;;0.00;0.00;;;;;;;13.52;84.13;100114.44;4871422;29;20112;-75
2023/09/28 04:43:03;;;;;;;0.00;0.00;;;;;;;13.48;83.86;100116.13;4863559;29;20036;-75
2023/09/28 04:45:29;;;;;;;0.00;0.00;;;;;;;13.44;84.31;100111.22;4858402;29;20507;-74
2023/09/28 04:47:54;;;;;;;0.00;0.00;;;;;;;13.43;84.99;100119.75;4850628;29;20119;-75
2023/09/28 04:50:20;;;;;;;0.00;0.00;;;;;;;13.38;84.73;100128.88;4889523;29;20520;-74
2023/09/28 04:52:46;;;;;;;0.00;0.00;;;;;;;13.32;85.15;100130.03;4890997;29;20550;-75
2023/09/28 04:55:11;;;;;;;0.00;0.00;;;;;;;13.22;85.90;100130.94;4886462;29;20028;-75
2023/09/28 04:57:37;;;;;;;0.00;0.00;;;;;;;13.18;86.33;100140.88;4847949;29;20052;-75
2023/09/28 05:00:06;;;;;;;0.00;0.00;;;;;;;13.12;86.34;100136.53;4870842;29;20038;-75
2023/09/28 05:02:32;;;;;;;0.00;0.00;;;;;;;13.07;85.92;100151.16;4862000;29;20025;-74
2023/09/28 05:04:57;;;;;;;0.00;0.00;;;;;;;13.05;86.53;100158.03;4840244;29;20040;-75
2023/09/28 05:07:23;;;;;;;0.00;0.00;;;;;;;12.96;86.47;100152.34;4877678;29;20759;-75
2023/09/28 05:09:49;;;;;;;0.00;0.00;;;;;;;12.94;86.46;100146.34;4843746;29;20040;-75
2023/09/28 05:12:14;;;;;;;0.00;0.00;;;;;;;12.89;86.43;100146.38;4861974;29;20326;-74
2023/09/28 05:14:41;;;;;;;0.00;0.00;;;;;;;12.74;86.47;100134.41;4857676;29;20398;-73
2023/09/28 05:17:06;;;;;;;0.00;0.00;;;;;;;12.74;86.87;100148.13;4888565;29;20432;-73
2023/09/28 05:19:32;;;;;;;0.00;0.00;;;;;;;12.66;87.68;100159.75;4873860;29;20056;-77
2023/09/28 05:21:57;;;;;;;0.10;0.10;;;;;;;12.61;88.12;100170.75;4858208;29;20047;-75
2023/09/28 05:24:22;;;;;;;0.00;0.00;;;;;;;12.56;88.47;100168.06;4861288;29;20120;-74
2023/09/28 05:26:48;;;;;;;0.00;0.00;;;;;;;12.48;89.01;100161.22;4838668;29;20029;-74
2023/09/28 05:29:14;;;;;;;0.00;0.00;;;;;;;12.45;89.18;100161.00;4872566;29;20067;-75
2023/09/28 05:31:40;;;;;;;0.00;0.00;;;;;;;12.35;89.65;100157.22;4845688;29;20047;-74
2023/09/28 05:34:06;;;;;;;0.00;0.00;;;;;;;12.28;89.75;100170.44;4850406;29;20045;-75
2023/09/28 05:36:31;;;;;;;0.00;0.00;;;;;;;12.21;90.17;100183.63;4859591;29;20036;-74
2023/09/28 05:38:56;;;;;;;0.00;0.00;;;;;;;12.21;90.97;100186.38;4862423;29;21782;-75
2023/09/28 05:41:22;;;;;;;0.00;0.00;;;;;;;12.20;90.62;100207.47;4887888;29;20056;-76
2023/09/28 05:43:48;;;;;;;0.00;0.00;;;;;;;12.16;90.80;100200.94;4849780;29;20503;-75
2023/09/28 05:46:14;;;;;;;0.00;0.00;;;;;;;12.10;90.83;100196.56;4867326;29;21025;-74
2023/09/28 05:48:40;;;;;;;0.00;0.00;;;;;;;12.09;91.59;100180.38;4844138;29;20041;-76
2023/09/28 05:51:05;;;;;;;0.00;0.00;;;;;;;12.03;91.65;100177.69;4863335;29;20554;-74
2023/09/28 05:53:31;;;;;;;0.00;0.00;;;;;;;12.01;91.56;100179.88;4873819;29;20028;-75
2023/09/28 05:55:56;;;;;;;0.00;0.00;;;;;;;12.03;91.88;100179.59;4872764;29;20054;-75
2023/09/28 05:58:24;;;;;;;0.00;0.00;;;;;;;11.99;91.71;100157.44;4866214;29;20108;-75
2023/09/28 06:00:49;;;;;;;0.00;0.00;;;;;;;11.95;92.11;100164.56;4873400;29;20403;-77
2023/09/28 06:03:15;;;;;;;0.00;0.00;;;;;;;11.95;92.84;100170.03;4857583;29;20044;-75
2023/09/28 06:05:40;;;;;;;0.00;0.00;;;;;;;11.92;92.79;100164.28;4885361;29;20024;-77
2023/09/28 06:08:06;;;;;;;0.00;0.00;;;;;;;11.96;93.05;100187.28;4862355;29;20036;-75
2023/09/28 06:10:33;;;;;;;0.00;0.00;;;;;;;11.99;92.62;100184.03;4872147;29;20549;-74
2023/09/28 06:12:58;;;;;;;0.00;0.00;;;;;;;11.97;92.98;100173.34;4890308;29;20167;-75
2023/09/28 06:15:32;;;;;;;0.00;0.00;;;;;;;12.13;92.30;100203.41;4854807;29;20750;-74
2023/09/28 06:18:00;;;;;;;0.00;0.00;;;;;;;12.10;92.18;100199.28;4871268;29;20032;-75
2023/09/28 06:20:25;;;;;;;0.00;0.00;;;;;;;12.11;91.89;100205.63;4856649;29;21044;-76
2023/09/28 06:22:58;;;;;;;0.00;0.00;;;;;;;12.04;92.06;100205.91;4890157;29;20040;-76
2023/09/28 06:25:23;;;;;;;0.00;0.00;;;;;;;12.03;92.22;100210.56;4884826;29;21020;-74
2023/09/28 06:27:49;;;;;;;0.00;0.00;;;;;;;11.99;92.39;100217.72;4887590;29;20033;-74
2023/09/28 06:30:14;;;;;;;0.00;0.00;;;;;;;12.00;92.83;100221.25;4894847;29;20043;-75
2023/09/28 06:32:39;;;;;;;0.00;0.00;;;;;;;12.11;92.90;100228.34;4873018;29;20172;-74
2023/09/28 06:35:19;;;;;;;0.00;0.00;;;;;;;12.09;92.09;100213.28;4869545;29;20095;-79
2023/09/28 06:37:47;;;;;;;0.00;0.00;;;;;;;12.15;92.09;100206.66;4886611;29;20452;-77
2023/09/28 06:40:12;;;;;;;0.00;0.00;;;;;;;12.38;91.37;100227.09;4872411;29;20045;-78
2023/09/28 06:42:38;;;;;;;0.00;0.00;;;;;;;12.46;91.31;100206.53;4846426;29;20051;-77
2023/09/28 06:45:04;;;;;;;0.00;0.00;;;;;;;12.71;90.86;100224.72;4861685;29;20726;-74
2023/09/28 06:47:29;;;;;;;0.00;0.00;;;;;;;12.79;90.14;100226.03;4890765;29;20032;-75
2023/09/28 06:49:56;;;;;;;0.00;0.00;;;;;;;12.80;89.91;100233.16;4857682;29;20120;-75
2023/09/28 06:52:21;;;;;;;0.00;0.00;;;;;;;12.82;89.77;100225.47;4856638;29;20060;-75
2023/09/28 06:54:47;;;;;;;0.00;0.00;;;;;;;12.85;89.81;100238.59;4852399;29;20796;-74
2023/09/28 06:57:19;;;;;;;0.00;0.00;;;;;;;12.86;90.12;100232.81;4875101;29;20548;-76
2023/09/28 06:59:44;;;;;;;0.00;0.00;;;;;;;12.95;89.68;100229.47;4844880;29;20041;-78
2023/09/28 07:02:09;;;;;;;0.00;0.00;;;;;;;12.99;89.69;100236.84;4867663;29;20043;-78
2023/09/28 07:04:35;;;;;;;0.00;0.00;;;;;;;13.02;89.58;100241.75;4867570;29;20040;-75
2023/09/28 07:07:00;;;;;;;0.00;0.00;;;;;;;13.04;89.10;100238.72;4863878;29;20036;-75
2023/09/28 07:09:26;;;;;;;0.00;0.00;;;;;;;13.13;89.21;100242.50;4858482;29;20044;-75
2023/09/28 07:11:52;;;;;;;0.00;0.00;;;;;;;13.20;89.46;100236.66;4848658;29;20051;-75
2023/09/28 07:14:17;;;;;;;0.00;0.00;;;;;;;13.41;88.72;100242.84;4867867;29;20486;-75
2023/09/28 07:16:45;;;;;;;0.00;0.00;;;;;;;13.50;87.86;100240.28;4852968;29;20037;-76
2023/09/28 07:19:10;;;;;;;0.00;0.00;;;;;;;13.55;87.71;100231.97;4854239;29;20509;-75
2023/09/28 07:21:36;;;;;;;0.00;0.00;;;;;;;13.67;87.10;100229.66;4859273;29;20037;-77
2023/09/28 07:24:06;;;;;;;0.00;0.00;;;;;;;13.87;86.38;100236.88;4884641;29;20107;-76
2023/09/28 07:26:32;;;;;;;0.00;0.00;;;;;;;14.09;86.09;100230.81;4872040;29;20045;-75
2023/09/28 07:28:59;;;;;;;0.00;0.00;;;;;;;14.16;85.62;100224.13;4880862;29;20065;-77
2023/09/28 07:31:24;;;;;;;0.00;0.00;;;;;;;14.30;85.02;100230.56;4889880;29;20024;-76
2023/09/28 07:33:50;;;;;;;0.00;0.00;;;;;;;14.26;84.82;100230.31;4869128;29;20510;-76
2023/09/28 07:36:15;;;;;;;0.00;0.00;;;;;;;14.17;84.71;100214.78;4858104;29;20047;-76
2023/09/28 07:38:43;;;;;;;0.00;0.00;;;;;;;14.19;84.96;100220.78;4849332;29;20029;-75
2023/09/28 07:41:09;;;;;;;0.00;0.00;;;;;;;14.19;84.36;100218.84;4857806;29;20063;-75
2023/09/28 07:43:34;;;;;;;0.00;0.00;;;;;;;14.14;84.46;100205.19;4863175;29;20710;-76
2023/09/28 07:46:00;;;;;;;0.00;0.00;;;;;;;14.06;84.30;100200.34;4863277;29;20079;-78
2023/09/28 07:48:26;;;;;;;0.00;0.00;;;;;;;13.94;85.06;100187.03;4888698;29;20025;-75
2023/09/28 07:50:51;;;;;;;0.00;0.00;;;;;;;14.03;85.12;100196.25;4870264;29;20887;-75
2023/09/28 07:53:20;;;;;;;0.00;0.00;;;;;;;14.14;84.87;100217.00;4868927;29;20039;-77
2023/09/28 07:55:50;;;;;;;0.00;0.00;;;;;;;14.14;85.16;100228.00;4886015;29;20031;-76
2023/09/28 07:58:16;;;;;;;0.00;0.00;;;;;;;14.20;85.19;100236.19;4860105;29;20044;-76
2023/09/28 08:00:42;;;;;;;0.00;0.00;;;;;;;14.21;85.20;100232.34;4864601;29;20131;-76
2023/09/28 08:03:10;;;;;;;0.00;0.00;;;;;;;14.33;84.85;100207.94;4860517;29;20056;-76
2023/09/28 08:05:37;;;;;;;0.00;0.00;;;;;;;14.61;84.54;100213.59;4867400;29;20029;-75
2023/09/28 08:08:03;;;;;;;0.00;0.00;;;;;;;14.77;83.61;100200.47;4868016;29;20040;-76
2023/09/28 08:10:29;;;;;;;0.00;0.00;;;;;;;15.01;83.21;100203.09;4845155;29;20035;-76
2023/09/28 08:12:54;;;;;;;0.00;0.00;;;;;;;15.14;82.37;100205.09;4857790;29;20028;-75
2023/09/28 08:15:20;;;;;;;0.00;0.00;;;;;;;15.32;81.59;100221.84;4857776;29;20041;-76
2023/09/28 08:17:47;;;;;;;0.00;0.00;;;;;;;15.53;81.29;100217.56;4866762;29;20111;-76
2023/09/28 08:20:15;;;;;;;0.00;0.00;;;;;;;15.67;79.90;100209.34;4877200;29;20085;-75
2023/09/28 08:22:40;;;;;;;0.00;0.00;;;;;;;15.84;78.53;100228.06;4855379;29;20391;-76
2023/09/28 08:25:12;;;;;;;0.00;0.00;;;;;;;15.91;78.47;100230.41;4869336;29;20033;-76
2023/09/28 08:27:37;;;;;;;0.00;0.00;;;;;;;15.84;77.61;100224.47;4881484;29;20072;-76
2023/09/28 08:30:04;;;;;;;0.00;0.00;;;;;;;15.97;77.50;100237.44;4870419;29;20123;-77
2023/09/28 08:32:29;;;;;;;0.00;0.00;;;;;;;15.99;77.71;100239.88;4865391;29;20078;-76
2023/09/28 08:34:54;;;;;;;0.00;0.00;;;;;;;15.99;77.45;100242.66;4853385;29;20112;-76
2023/09/28 08:37:20;;;;;;;0.00;0.00;;;;;;;15.95;77.25;100244.41;4886490;29;20482;-75
2023/09/28 08:39:46;;;;;;;0.00;0.00;;;;;;;15.88;77.77;100255.84;4885458;29;20024;-76
2023/09/28 08:42:15;;;;;;;0.00;0.00;;;;;;;15.75;78.88;100262.94;4860550;29;20028;-75
2023/09/28 08:44:41;;;;;;;0.00;0.00;;;;;;;15.68;78.72;100257.00;4873702;29;20135;-75
2023/09/28 08:47:26;;;;;;;0.00;0.00;;;;;;;15.77;79.52;100271.72;4863932;29;20081;-76
2023/09/28 08:49:54;;;;;;;0.00;0.00;;;;;;;15.83;78.57;100267.78;4871693;29;20119;-75
2023/09/28 08:52:27;;;;;;;0.00;0.00;;;;;;;15.85;79.19;100251.75;4898525;29;20036;-75
2023/09/28 08:54:53;;;;;;;0.00;0.00;;;;;;;16.23;78.91;100251.53;4881287;29;20043;-75
2023/09/28 08:57:19;;;;;;;0.00;0.00;;;;;;;16.62;77.88;100242.97;4888467;29;20040;-76
2023/09/28 08:59:46;;;;;;;0.00;0.00;;;;;;;16.90;76.67;100235.44;4865002;29;22002;-76
2023/09/28 09:02:13;;;;;;;0.00;0.00;;;;;;;17.14;75.81;100228.78;4865458;29;20025;-76
2023/09/28 09:04:40;;;;;;;0.00;0.00;;;;;;;17.26;75.53;100237.31;4869011;29;20033;-76
2023/09/28 09:07:06;;;;;;;0.00;0.00;;;;;;;17.23;75.43;100244.28;4869381;29;20097;-75
2023/09/28 09:09:34;;;;;;;0.00;0.00;;;;;;;17.16;75.86;100221.81;4888369;29;20633;-75
2023/09/28 09:12:04;;;;;;;0.00;0.00;;;;;;;17.23;75.82;100233.25;4848353;29;20029;-76
2023/09/28 09:14:30;;;;;;;0.00;0.00;;;;;;;17.21;74.91;100252.06;4886740;29;20076;-76
2023/09/28 09:16:55;;;;;;;0.00;0.00;;;;;;;17.24;74.77;100257.00;4880907;29;20021;-74
2023/09/28 09:19:21;;;;;;;0.00;0.00;;;;;;;17.31;74.19;100261.25;4849915;29;20024;-77
2023/09/28 09:21:51;;;;;;;0.00;0.00;;;;;;;17.21;74.13;100268.63;4864444;29;20067;-77
2023/09/28 09:24:19;;;;;;;0.00;0.00;;;;;;;17.09;75.01;100268.41;4869550;29;20029;-76
2023/09/28 09:26:46;;;;;;;0.00;0.00;;;;;;;16.95;75.31;100270.41;4838326;29;20105;-76
2023/09/28 09:29:14;;;;;;;0.00;0.00;;;;;;;16.99;75.61;100254.84;4867398;29;20021;-76
2023/09/28 09:31:41;;;;;;;0.00;0.00;;;;;;;17.18;75.47;100249.13;4850594;29;20043;-75
2023/09/28 09:34:11;;;;;;;0.00;0.00;;;;;;;17.21;75.46;100252.06;4862683;29;20364;-75
2023/09/28 09:36:37;;;;;;;0.00;0.00;;;;;;;17.30;74.81;100237.50;4880804;29;20036;-76
2023/09/28 09:39:03;;;;;;;0.00;0.00;;;;;;;17.49;74.41;100246.38;4862390;29;20032;-76
2023/09/28 09:41:34;;;;;;;0.00;0.00;;;;;;;17.57;73.87;100226.25;4848027;29;20060;-75
2023/09/28 09:44:00;;;;;;;0.00;0.00;;;;;;;18.16;72.59;100230.72;4865244;29;20032;-76
2023/09/28 09:46:26;;;;;;;0.00;0.00;;;;;;;18.81;71.04;100233.75;4874116;29;20025;-75
2023/09/28 09:48:53;;;;;;;0.00;0.00;;;;;;;19.69;69.00;100228.84;4855045;29;20036;-76
2023/09/28 09:51:18;;;;;;;0.00;0.00;;;;;;;20.32;66.90;100212.38;4852625;29;20043;-76
2023/09/28 09:53:46;;;;;;;0.00;0.00;;;;;;;20.45;64.73;100229.13;4883613;29;20667;-76
2023/09/28 09:56:16;;;;;;;0.00;0.00;;;;;;;20.04;64.91;100235.06;4864999;29;20391;-76
2023/09/28 09:58:42;;;;;;;0.00;0.00;;;;;;;19.59;64.27;100246.66;4872879;29;20131;-75
2023/09/28 10:01:13;;;;;;;0.00;0.00;;;;;;;19.35;65.82;100247.25;4889545;29;20041;-75
2023/09/28 10:03:42;;;;;;;0.00;0.00;;;;;;;19.13;65.98;100267.66;4876976;29;20024;-76
2023/09/28 10:06:09;;;;;;;0.00;0.00;;;;;;;18.81;66.29;100253.94;4894326;29;20043;-76
2023/09/28 10:08:38;;;;;;;0.00;0.00;;;;;;;18.71;67.34;100261.78;4872191;29;20099;-77
2023/09/28 10:11:04;;;;;;;0.00;0.00;;;;;;;18.73;68.12;100254.75;4875660;29;20032;-76
2023/09/28 10:13:31;;;;;;;0.00;0.00;;;;;;;18.88;67.85;100245.19;4856451;29;20460;-75
2023/09/28 10:16:02;;;;;;;0.00;0.00;;;;;;;19.00;66.76;100239.78;4888019;29;20040;-75
2023/09/28 10:18:29;;;;;;;0.00;0.00;;;;;;;19.01;65.52;100255.28;4868719;29;20029;-76
2023/09/28 10:20:59;;;;;;;0.00;0.00;;;;;;;19.04;65.96;100258.53;4890671;29;20624;-74
2023/09/28 10:23:26;;;;;;;0.00;0.00;;;;;;;19.23;65.64;100245.16;4884587;29;20021;-77
2023/09/28 10:26:12;;;;;;;0.00;0.00;;;;;;;19.36;64.76;100249.69;4888710;29;20171;-76
2023/09/28 10:29:06;;;;;;;0.00;0.00;;;;;;;19.55;63.36;100262.34;4887591;29;20482;-76
2023/09/28 10:31:41;;;;;;;0.00;0.00;;;;;;;19.26;62.67;100263.88;4885599;29;20028;-76
2023/09/28 10:34:09;;;;;;;0.00;0.00;;;;;;;18.95;63.56;100259.34;4852148;29;20036;-75
2023/09/28 10:36:39;;;;;;;0.00;0.00;;;;;;;18.60;63.19;100245.47;4887750;29;20024;-77
2023/09/28 10:39:15;;;;;;;0.00;0.00;;;;;;;18.90;63.34;100250.41;4864351;29;20442;-76
2023/09/28 10:41:49;;;;;;;0.00;0.00;;;;;;;19.96;62.00;100249.84;4886003;29;20424;-76
2023/09/28 10:44:17;;;;;;;0.00;0.00;;;;;;;21.18;57.43;100252.91;4872258;29;20126;-75
2023/09/28 10:46:45;;;;;;;0.00;0.00;;;;;;;22.20;55.53;100257.97;4866019;29;20040;-75
2023/09/28 10:49:29;;;;;;;0.00;0.00;;;;;;;22.88;50.01;100275.97;4869070;29;20391;-75
2023/09/28 10:51:59;;;;;;;0.00;0.00;;;;;;;22.89;50.36;100256.09;4886284;29;20059;-75
2023/09/28 10:54:25;;;;;;;0.00;0.00;;;;;;;23.39;49.12;100262.28;4857473;29;20048;-75
2023/09/28 10:56:51;;;;;;;0.00;0.00;;;;;;;26.87;43.72;100264.13;4869633;29;20037;-74
2023/09/28 10:59:20;;;;;;;0.00;0.00;;;;;;;29.57;37.12;100251.22;4890946;29;20025;-75
2023/09/28 11:01:49;;;;;;;0.00;0.00;;;;;;;29.49;35.75;100260.88;4880122;29;20025;-75
2023/09/28 11:04:16;;;;;;;0.00;0.00;;;;;;;27.85;36.71;100257.56;4884739;29;20043;-76
2023/09/28 11:06:43;;;;;;;0.00;0.00;;;;;;;26.44;39.15;100255.09;4883151;29;20043;-76
2023/09/28 11:09:14;;;;;;;0.00;0.00;;;;;;;24.79;41.67;100247.34;4870649;29;20621;-77
2023/09/28 11:11:43;;;;;;;0.00;0.00;;;;;;;23.58;44.43;100238.47;4851563;29;21360;-75
2023/09/28 11:14:10;;;;;;;0.00;0.00;;;;;;;22.63;47.57;100226.69;4859299;29;20035;-75
2023/09/28 11:16:41;;;;;;;0.00;0.00;;;;;;;22.48;49.23;100235.78;4885615;29;20115;-75
2023/09/28 11:19:08;;;;;;;0.00;0.00;;;;;;;22.09;49.47;100247.28;4870458;29;20140;-75
2023/09/28 11:21:34;;;;;;;0.00;0.00;;;;;;;21.31;51.15;100228.72;4881370;29;20044;-75
2023/09/28 11:24:00;;;;;;;0.00;0.00;;;;;;;20.78;52.81;100239.50;4888885;29;20056;-75
2023/09/28 11:26:26;;;;;;;0.00;0.00;;;;;;;20.46;55.19;100233.50;4874185;29;20033;-76